Time;durP1;ratioP1;P1;durP2;ratioP2;P2;SDS_P1;SDS_P2;PMS_P1;PMS_P2;Temp;Humidity;BMP_temperature;BMP_pressure;BME280_temperature;BME280_humidity;BME280_pressure;Samples;Min_cycle;Max_cycle;Signal;HPM_P1;HPM_P2
2023/08/07 00:02:22;;;;;;;6.03;2.70;;;;;;;13.49;100.00;99153.34;5094649;28;20024;-77
2023/08/07 00:04:47;;;;;;;4.00;2.95;;;;;;;13.50;100.00;99166.34;5094029;28;20024;-76
2023/08/07 00:07:13;;;;;;;4.88;2.72;;;;;;;13.50;100.00;99158.50;5109956;28;20116;-75
2023/08/07 00:09:38;;;;;;;2.72;2.20;;;;;;;13.47;100.00;99165.34;5109669;28;20024;-75
2023/08/07 00:12:03;;;;;;;3.53;2.38;;;;;;;13.52;100.00;99158.78;5093957;28;20033;-76
2023/08/07 00:14:29;;;;;;;5.18;2.88;;;;;;;13.52;100.00;99160.88;5094181;28;20161;-75
2023/08/07 00:16:54;;;;;;;3.42;2.75;;;;;;;13.54;100.00;99156.13;5094059;28;20024;-75
2023/08/07 00:19:20;;;;;;;5.60;2.40;;;;;;;13.53;100.00;99162.44;5093977;28;20028;-76
2023/08/07 00:21:45;;;;;;;6.25;2.55;;;;;;;13.52;100.00;99158.78;5093955;28;20452;-75
2023/08/07 00:24:10;;;;;;;6.30;2.55;;;;;;;13.53;100.00;99163.22;5094325;28;20063;-77
2023/08/07 00:26:36;;;;;;;3.25;2.30;;;;;;;13.58;100.00;99157.94;5094003;28;20032;-76
2023/08/07 00:29:01;;;;;;;3.15;2.35;;;;;;;13.64;100.00;99164.41;5093810;28;20107;-77
2023/08/07 00:31:30;;;;;;;4.35;3.00;;;;;;;13.70;100.00;99173.69;5093597;28;20028;-77
2023/08/07 00:33:56;;;;;;;3.15;2.35;;;;;;;13.72;100.00;99173.94;5092385;28;20048;-77
2023/08/07 00:36:21;;;;;;;6.38;2.53;;;;;;;13.66;100.00;99170.34;5093480;28;20510;-77
2023/08/07 00:38:47;;;;;;;5.70;2.55;;;;;;;13.68;100.00;99170.59;5093802;28;20024;-75
2023/08/07 00:41:12;;;;;;;4.43;2.30;;;;;;;13.63;100.00;99168.56;5092627;28;20381;-76
2023/08/07 00:43:38;;;;;;;3.10;2.40;;;;;;;13.58;100.00;99161.59;5093851;28;20016;-76
2023/08/07 00:46:03;;;;;;;2.75;2.33;;;;;;;13.65;100.00;99165.94;5079330;28;20025;-76
2023/08/07 00:48:29;;;;;;;4.57;2.67;;;;;;;13.62;100.00;99152.66;5071300;28;20025;-77
2023/08/07 00:50:55;;;;;;;2.95;2.33;;;;;;;13.62;100.00;99149.78;5069892;28;20028;-77
2023/08/07 00:53:20;;;;;;;5.35;2.58;;;;;;;13.60;100.00;99150.31;5069682;28;20027;-74
2023/08/07 00:55:46;;;;;;;4.00;2.63;;;;;;;13.62;100.00;99152.66;5086533;28;20032;-74
2023/08/07 00:58:12;;;;;;;4.10;2.80;;;;;;;13.62;100.00;99146.94;5086584;28;20020;-76
2023/08/07 01:00:37;;;;;;;4.20;2.70;;;;;;;13.60;100.00;99144.59;5069268;28;20059;-76
2023/08/07 01:03:06;;;;;;;10.95;3.30;;;;;;;13.65;100.00;99134.34;5070626;28;20016;-77
2023/08/07 01:05:31;;;;;;;4.93;2.80;;;;;;;13.65;100.00;99135.13;5074025;28;20031;-77
2023/08/07 01:07:57;;;;;;;5.07;2.72;;;;;;;13.66;100.00;99135.91;5088754;28;20043;-77
2023/08/07 01:10:32;;;;;;;4.53;2.80;;;;;;;13.71;100.00;99135.81;5070238;28;20032;-77
2023/08/07 01:13:05;;;;;;;3.60;2.55;;;;;;;13.70;100.00;99142.09;5069761;28;20062;-77
2023/08/07 01:15:32;;;;;;;5.55;3.63;;;;;;;13.72;100.00;99146.00;5069783;28;20101;-75
2023/08/07 01:17:57;;;;;;;4.32;3.08;;;;;;;13.71;100.00;99140.78;5069659;28;20378;-76
2023/08/07 01:20:23;;;;;;;4.60;2.80;;;;;;;13.70;100.00;99142.09;5069699;28;20032;-75
2023/08/07 01:22:48;;;;;;;5.03;2.58;;;;;;;13.73;100.00;99152.53;5071807;28;20031;-75
2023/08/07 01:25:14;;;;;;;2.78;2.55;;;;;;;13.75;100.00;99147.78;5071917;28;20504;-76
2023/08/07 01:27:58;;;;;;;3.30;2.70;;;;;;;13.78;100.00;99145.94;5073153;28;20025;-76
2023/08/07 01:30:38;;;;;;;4.15;2.88;;;;;;;13.70;100.00;99142.88;5071590;28;20113;-76
2023/08/07 01:33:07;;;;;;;5.75;2.50;;;;;;;13.68;100.00;99142.66;5071897;28;20081;-76
2023/08/07 01:35:42;;;;;;;8.02;3.00;;;;;;;13.71;100.00;99140.78;5073192;28;20170;-76
2023/08/07 01:38:08;;;;;;;6.07;2.90;;;;;;;13.72;100.00;99146.00;5072857;28;20476;-76
2023/08/07 01:40:35;;;;;;;4.32;2.40;;;;;;;13.71;100.00;99146.53;5072978;28;20473;-75
2023/08/07 01:43:00;;;;;;;4.28;2.63;;;;;;;13.68;100.00;99147.63;5088775;28;20032;-75
2023/08/07 01:45:27;;;;;;;5.55;2.58;;;;;;;13.64;100.00;99152.91;5072024;28;20050;-77
2023/08/07 01:47:52;;;;;;;4.47;2.40;;;;;;;13.61;100.00;99140.41;5073294;28;20032;-77
2023/08/07 01:50:19;;;;;;;2.85;2.33;;;;;;;13.59;100.00;99137.28;5073011;28;20020;-76
2023/08/07 01:52:45;;;;;;;4.63;2.53;;;;;;;13.57;100.00;99139.16;5074913;28;20038;-76
2023/08/07 01:55:10;;;;;;;5.43;2.50;;;;;;;13.57;100.00;99133.41;5076662;28;20123;-76
2023/08/07 01:57:36;;;;;;;3.15;2.55;;;;;;;13.60;100.00;99138.84;5076671;28;20459;-75
2023/08/07 02:00:03;;;;;;;11.52;3.10;;;;;;;13.61;100.00;99148.25;5075548;28;20048;-76
2023/08/07 02:02:29;;;;;;;3.75;2.17;;;;;;;13.60;100.00;99147.47;5075519;28;20469;-76
2023/08/07 02:04:54;;;;;;;6.30;3.03;;;;;;;13.63;100.00;99142.75;5076737;28;20090;-75
2023/08/07 02:07:19;;;;;;;5.07;2.58;;;;;;;13.67;100.00;99141.09;5075338;28;20066;-76
2023/08/07 02:09:45;;;;;;;6.88;2.70;;;;;;;13.72;100.00;99131.66;5075078;28;20071;-77
2023/08/07 02:12:10;;;;;;;3.80;2.65;;;;;;;13.77;100.00;99139.41;5076412;28;20060;-75
2023/08/07 02:14:35;;;;;;;5.82;3.08;;;;;;;13.80;100.00;99149.78;5076273;28;20449;-76
2023/08/07 02:17:01;;;;;;;4.18;2.70;;;;;;;13.82;100.00;99147.16;5076440;28;20028;-76
2023/08/07 02:19:26;;;;;;;3.65;2.45;;;;;;;13.70;100.00;99125.66;5076331;28;20033;-75
2023/08/07 02:21:52;;;;;;;3.53;3.08;;;;;;;13.68;100.00;99136.94;5092039;28;20055;-76
2023/08/07 02:24:19;;;;;;;3.72;2.70;;;;;;;13.75;100.00;99147.78;5076082;28;20033;-75
2023/08/07 02:26:44;;;;;;;6.80;2.88;;;;;;;13.76;100.00;99149.34;5076460;28;20053;-76
2023/08/07 02:29:10;;;;;;;2.90;2.60;;;;;;;13.81;100.00;99156.31;5076563;28;20489;-76
2023/08/07 02:31:35;;;;;;;4.15;2.55;;;;;;;13.80;100.00;99149.00;5076686;28;20469;-75
2023/08/07 02:34:01;;;;;;;5.30;2.83;;;;;;;13.80;100.00;99146.13;5076156;28;20083;-75
2023/08/07 02:36:26;;;;;;;2.72;2.40;;;;;;;13.80;100.00;99146.13;5075998;28;20032;-75
2023/08/07 02:38:52;;;;;;;7.00;2.90;;;;;;;13.81;100.00;99145.59;5091590;28;20123;-74
2023/08/07 02:41:17;;;;;;;6.63;2.92;;;;;;;13.83;100.00;99142.97;5091790;28;20036;-76
2023/08/07 02:43:42;;;;;;;4.15;2.45;;;;;;;13.83;100.00;99137.22;5074583;28;20070;-75
2023/08/07 02:46:08;;;;;;;3.40;2.67;;;;;;;13.80;100.00;99144.03;5074574;28;20024;-75
2023/08/07 02:48:33;;;;;;;5.85;2.70;;;;;;;13.83;100.00;99147.94;5075975;28;20046;-75
2023/08/07 02:50:59;;;;;;;3.95;2.42;;;;;;;13.83;100.00;99145.06;5075812;28;20028;-75
2023/08/07 02:53:24;;;;;;;3.38;2.97;;;;;;;13.81;100.00;99145.59;5075824;28;20106;-75
2023/08/07 02:55:50;;;;;;;4.05;2.88;;;;;;;13.80;100.00;99144.03;5075321;28;20103;-75
2023/08/07 02:58:15;;;;;;;3.80;3.13;;;;;;;13.81;100.00;99154.22;5074500;28;20041;-76
2023/08/07 03:00:40;;;;;;;5.88;3.10;;;;;;;13.83;100.00;99157.34;5075486;28;20042;-75
2023/08/07 03:03:06;;;;;;;4.40;3.30;;;;;;;13.79;100.00;99141.72;5073385;28;20427;-76
2023/08/07 03:05:31;;;;;;;4.53;2.97;;;;;;;13.90;100.00;99153.81;5091376;28;20033;-77
2023/08/07 03:07:56;;;;;;;5.80;3.40;;;;;;;13.82;100.00;99143.50;5074214;28;20462;-76
2023/08/07 03:10:22;;;;;;;4.95;3.00;;;;;;;13.89;100.00;99151.50;5075181;28;20526;-77
2023/08/07 03:12:47;;;;;;;4.38;3.05;;;;;;;13.90;100.00;99158.78;5095502;28;20039;-75
2023/08/07 03:15:13;;;;;;;7.13;3.50;;;;;;;13.92;100.00;99164.78;5094316;28;20420;-76
2023/08/07 03:17:38;;;;;;;4.82;3.22;;;;;;;13.93;100.00;99161.38;5093883;28;20038;-76
2023/08/07 03:20:04;;;;;;;4.43;3.40;;;;;;;13.97;100.00;99170.44;5094065;28;20024;-75
2023/08/07 03:22:29;;;;;;;6.70;3.63;;;;;;;13.99;100.00;99167.00;5095435;28;20492;-77
2023/08/07 03:24:55;;;;;;;7.70;3.50;;;;;;;14.06;100.00;99172.13;5095087;28;20023;-75
2023/08/07 03:27:20;;;;;;;6.78;4.10;;;;;;;14.10;100.00;99169.72;5095243;28;20075;-74
2023/08/07 03:29:46;;;;;;;7.70;4.00;;;;;;;14.16;100.00;99170.41;5095527;28;20050;-74
2023/08/07 03:32:11;;;;;;;9.32;3.72;;;;;;;14.15;100.00;99171.72;5094662;28;20031;-75
2023/08/07 03:34:37;;;;;;;8.10;4.30;;;;;;;14.17;100.00;99179.81;5094942;28;20051;-75
2023/08/07 03:37:02;;;;;;;6.78;4.18;;;;;;;14.16;100.00;99178.25;5094711;28;20111;-76
2023/08/07 03:39:28;;;;;;;4.00;3.58;;;;;;;14.08;100.00;99177.34;5094980;28;20059;-77
2023/08/07 03:41:53;;;;;;;5.05;4.03;;;;;;;14.06;100.00;99183.63;5095002;28;20031;-74
2023/08/07 03:44:18;;;;;;;5.93;4.38;;;;;;;14.07;100.00;99188.06;5094867;28;20032;-76
2023/08/07 03:46:44;;;;;;;4.70;4.15;;;;;;;14.12;100.00;99195.81;5093397;28;20119;-76
2023/08/07 03:49:09;;;;;;;5.15;4.05;;;;;;;14.11;100.00;99193.47;5094974;28;20115;-75
2023/08/07 03:51:35;;;;;;;6.38;4.00;;;;;;;14.18;100.00;99187.88;5110498;28;20036;-74
2023/08/07 03:54:00;;;;;;;5.35;4.20;;;;;;;14.20;100.00;99196.72;5093361;28;20086;-76
2023/08/07 03:56:25;;;;;;;6.25;4.65;;;;;;;14.27;100.00;99201.09;5110238;28;20146;-76
2023/08/07 03:58:51;;;;;;;7.45;4.45;;;;;;;14.29;100.00;99192.69;5094821;28;20020;-76
2023/08/07 04:01:16;;;;;;;8.25;4.00;;;;;;;14.40;100.00;99201.13;5075829;28;20051;-75
2023/08/07 04:03:42;;;;;;;5.15;4.28;;;;;;;14.45;100.00;99190.88;5094720;28;20113;-75
2023/08/07 04:06:08;;;;;;;7.40;4.30;;;;;;;14.48;100.00;99196.28;5094470;28;20020;-75
2023/08/07 04:08:33;;;;;;;5.72;4.50;;;;;;;14.48;100.00;99207.78;5094344;28;20071;-76
2023/08/07 04:11:00;;;;;;;5.50;4.38;;;;;;;14.49;100.00;99197.06;5094355;28;20461;-75
2023/08/07 04:13:26;;;;;;;6.82;4.45;;;;;;;14.51;100.00;99200.97;5094546;28;20067;-76
2023/08/07 04:15:52;;;;;;;5.80;4.40;;;;;;;14.53;100.00;99206.91;5094114;28;20028;-76
2023/08/07 04:18:17;;;;;;;5.95;4.18;;;;;;;14.57;100.00;99218.13;5094216;28;20388;-76
2023/08/07 04:20:48;;;;;;;6.22;4.95;;;;;;;14.63;100.00;99218.81;5094140;28;20028;-75
2023/08/07 04:23:14;;;;;;;6.30;4.80;;;;;;;14.68;100.00;99217.94;5093878;28;20027;-76
2023/08/07 04:25:39;;;;;;;5.38;4.70;;;;;;;14.72;100.00;99218.44;5094500;28;20030;-75
2023/08/07 04:28:06;;;;;;;8.00;5.25;;;;;;;14.73;100.00;99220.72;5094450;28;20438;-75
2023/08/07 04:30:32;;;;;;;8.15;4.57;;;;;;;14.70;100.00;99218.97;5091635;28;20094;-76
2023/08/07 04:32:57;;;;;;;4.88;4.03;;;;;;;14.68;100.00;99221.59;5109596;28;20027;-76
2023/08/07 04:35:22;;;;;;;8.70;4.43;;;;;;;14.68;100.00;99224.47;5109852;28;20039;-76
2023/08/07 04:37:48;;;;;;;8.05;4.20;;;;;;;14.61;100.00;99219.38;5093438;28;20024;-75
2023/08/07 04:40:13;;;;;;;4.35;3.92;;;;;;;14.65;100.00;99227.69;5092500;28;20115;-75
2023/08/07 04:42:39;;;;;;;4.78;3.70;;;;;;;14.63;100.00;99224.56;5109490;28;20035;-76
2023/08/07 04:45:04;;;;;;;3.88;3.53;;;;;;;14.60;100.00;99225.66;5093011;28;20488;-76
2023/08/07 04:47:30;;;;;;;4.32;3.92;;;;;;;14.57;100.00;99218.91;5091449;28;20081;-76
2023/08/07 04:49:55;;;;;;;4.93;3.50;;;;;;;14.58;100.00;99223.34;5090067;28;20512;-77
2023/08/07 04:52:21;;;;;;;4.07;3.20;;;;;;;14.50;100.00;99221.63;5092284;28;20038;-76
2023/08/07 04:54:52;;;;;;;5.82;4.05;;;;;;;14.46;100.00;99212.53;5092439;28;20040;-76
2023/08/07 04:57:18;;;;;;;4.85;3.63;;;;;;;14.49;100.00;99220.84;5091736;28;20028;-75
2023/08/07 04:59:44;;;;;;;5.60;3.63;;;;;;;14.51;100.00;99223.97;5091182;28;20024;-75
2023/08/07 05:02:10;;;;;;;3.85;3.42;;;;;;;14.56;100.00;99223.09;5092008;28;20039;-76
2023/08/07 05:04:35;;;;;;;5.40;3.78;;;;;;;14.62;100.00;99223.81;5092343;28;20472;-76
2023/08/07 05:07:22;;;;;;;6.18;3.90;;;;;;;14.72;100.00;99227.81;5085954;28;20027;-76
2023/08/07 05:09:59;;;;;;;4.13;3.10;;;;;;;14.74;100.00;99233.00;5072028;28;20480;-76
2023/08/07 05:12:25;;;;;;;3.55;3.17;;;;;;;14.74;100.00;99235.88;5072724;28;20032;-78
2023/08/07 05:14:50;;;;;;;4.47;2.83;;;;;;;14.75;100.00;99241.09;5073215;28;20113;-76
2023/08/07 05:17:16;;;;;;;4.65;3.70;;;;;;;14.82;100.00;99242.56;5081339;28;20073;-77
2023/08/07 05:19:42;;;;;;;6.25;3.70;;;;;;;14.88;100.00;99239.56;5093349;28;20427;-78
2023/08/07 05:22:08;;;;;;;4.13;3.53;;;;;;;15.01;100.00;99248.25;5091150;28;20028;-77
2023/08/07 05:24:38;;;;;;;4.47;3.45;;;;;;;15.12;100.00;99245.94;5093513;28;20039;-75
2023/08/07 05:27:08;;;;;;;3.92;3.40;;;;;;;15.21;100.00;99251.28;5110940;28;20020;-83
2023/08/07 05:29:42;;;;;;;3.95;3.17;;;;;;;15.25;100.00;99248.84;5081242;28;20032;-81
2023/08/07 05:32:12;;;;;;;4.85;2.88;;;;;;;15.22;100.00;99243.41;5089014;28;20028;-77
2023/08/07 05:34:39;;;;;;;5.38;2.97;;;;;;;15.22;100.00;99243.41;5092345;28;20389;-77
2023/08/07 05:37:20;;;;;;;4.53;3.10;;;;;;;15.22;100.00;99238.44;5075736;28;20151;-76
2023/08/07 05:39:47;;;;;;;3.08;2.63;;;;;;;15.23;100.00;99236.31;5076959;28;20375;-75
2023/08/07 05:42:13;;;;;;;3.58;2.45;;;;;;;15.25;100.00;99242.31;5083593;28;20161;-76
2023/08/07 05:44:39;;;;;;;4.78;2.53;;;;;;;15.20;100.00;99234.56;5071291;28;20139;-76
2023/08/07 05:47:05;;;;;;;4.05;2.67;;;;;;;15.24;100.00;99250.19;5077204;28;20097;-75
2023/08/07 05:49:31;;;;;;;3.15;2.72;;;;;;;15.32;100.00;99243.78;5075806;28;20469;-77
2023/08/07 05:51:57;;;;;;;8.02;3.75;;;;;;;15.38;100.00;99253.06;5080249;28;20111;-74
2023/08/07 05:54:22;;;;;;;12.20;3.83;;;;;;;15.38;100.00;99247.31;5111915;28;20102;-76
2023/08/07 05:56:49;;;;;;;3.63;2.58;;;;;;;15.39;100.00;99252.53;5091090;28;20490;-77
2023/08/07 05:59:15;;;;;;;5.25;3.50;;;;;;;15.41;100.00;99258.50;5095186;28;20055;-76
2023/08/07 06:01:53;;;;;;;4.47;2.78;;;;;;;15.43;100.00;99255.84;5094042;28;20492;-79
2023/08/07 06:04:19;;;;;;;7.13;2.30;;;;;;;15.44;100.00;99253.75;5095102;28;20036;-76
2023/08/07 06:06:45;;;;;;;4.00;2.78;;;;;;;15.45;100.00;99255.28;5109158;28;20034;-76
2023/08/07 06:09:11;;;;;;;3.20;2.17;;;;;;;15.44;100.00;99256.63;5093185;28;20032;-77
2023/08/07 06:11:36;;;;;;;3.53;3.10;;;;;;;15.47;100.00;99258.38;5091650;28;20073;-78
2023/08/07 06:14:02;;;;;;;4.95;2.85;;;;;;;15.49;100.00;99267.25;5096383;28;20028;-76
2023/08/07 06:16:27;;;;;;;4.82;2.67;;;;;;;15.51;100.00;99267.50;5096685;28;20089;-75
2023/08/07 06:18:53;;;;;;;2.88;2.20;;;;;;;15.52;100.00;99271.91;5095000;28;20035;-75
2023/08/07 06:21:22;;;;;;;4.50;2.40;;;;;;;15.48;100.00;99277.22;5096139;28;20036;-79
2023/08/07 06:23:48;;;;;;;3.10;2.17;;;;;;;15.44;100.00;99276.78;5094131;28;20039;-77
2023/08/07 06:26:13;;;;;;;3.95;2.30;;;;;;;15.37;100.00;99280.28;5091762;28;20020;-76
2023/08/07 06:28:39;;;;;;;3.88;2.08;;;;;;;15.25;100.00;99283.41;5091189;28;20087;-78
2023/08/07 06:31:07;;;;;;;4.13;2.58;;;;;;;15.17;100.00;99294.00;5112415;28;20123;-78
2023/08/07 06:33:34;;;;;;;6.10;2.55;;;;;;;15.13;100.00;99302.16;5096542;28;20397;-78
2023/08/07 06:36:00;;;;;;;5.25;2.63;;;;;;;15.12;100.00;99302.75;5076066;28;20153;-78
2023/08/07 06:38:26;;;;;;;8.52;3.03;;;;;;;15.15;100.00;99299.53;5103987;28;20032;-78
2023/08/07 06:40:54;;;;;;;3.25;2.25;;;;;;;15.12;100.00;99294.09;5095537;28;20044;-78
2023/08/07 06:43:20;;;;;;;4.63;3.25;;;;;;;15.25;100.00;99315.06;5099047;28;20039;-78
2023/08/07 06:45:53;;;;;;;3.88;2.55;;;;;;;15.33;100.00;99318.06;5074530;28;20036;-80
2023/08/07 06:48:20;;;;;;;2.38;1.98;;;;;;;15.36;100.00;99314.09;5075731;28;20025;-78
2023/08/07 06:50:50;;;;;;;2.53;2.05;;;;;;;15.37;100.00;99309.84;5057750;28;20068;-78
2023/08/07 06:53:16;;;;;;;4.10;2.03;;;;;;;15.45;100.00;99312.88;5103129;28;20032;-76
2023/08/07 06:55:42;;;;;;;3.55;2.22;;;;;;;15.52;100.00;99309.31;5094820;28;20051;-77
2023/08/07 06:58:10;;;;;;;6.57;2.10;;;;;;;15.68;100.00;99305.41;5085416;28;20031;-77
2023/08/07 07:00:37;;;;;;;3.92;1.80;;;;;;;15.85;100.00;99313.72;5074110;28;20045;-76
2023/08/07 07:03:03;;;;;;;6.70;2.20;;;;;;;15.97;100.00;99312.16;5084914;28;20055;-75
2023/08/07 07:05:30;;;;;;;2.60;1.50;;;;;;;16.10;100.00;99321.59;5111316;28;20483;-76
2023/08/07 07:08:04;;;;;;;8.02;2.45;;;;;;;16.14;100.00;99315.47;5102961;28;20106;-76
2023/08/07 07:10:30;;;;;;;5.88;1.90;;;;;;;16.18;100.00;99307.25;5075379;28;20032;-76
2023/08/07 07:12:55;;;;;;;3.13;1.90;;;;;;;16.27;100.00;99323.31;5073599;28;20428;-77
2023/08/07 07:15:20;;;;;;;4.07;1.80;;;;;;;16.32;100.00;99322.41;5073844;28;20039;-76
2023/08/07 07:17:46;;;;;;;3.80;1.85;;;;;;;16.45;100.00;99322.41;5073745;28;20530;-76
2023/08/07 07:20:11;;;;;;;3.78;1.80;;;;;;;16.51;100.00;99317.28;5055872;28;20032;-77
2023/08/07 07:22:37;;;;;;;4.97;1.73;;;;;;;16.51;100.00;99320.16;5089330;28;20036;-76
2023/08/07 07:25:03;;;;;;;3.33;1.75;;;;;;;16.60;100.00;99322.59;5072180;28;20055;-75
2023/08/07 07:27:28;;;;;;;1.73;1.50;;;;;;;16.69;100.00;99319.28;5073103;28;20369;-76
2023/08/07 07:29:54;;;;;;;3.88;1.65;;;;;;;16.78;100.00;99313.00;5072938;28;20465;-75
2023/08/07 07:32:19;;;;;;;2.92;1.77;;;;;;;16.95;100.00;99316.25;5073354;28;20085;-76
2023/08/07 07:34:45;;;;;;;1.88;1.58;;;;;;;17.15;100.00;99313.94;5055074;28;20036;-77
2023/08/07 07:37:10;;;;;;;1.95;1.70;;;;;;;17.40;100.00;99309.34;5072915;28;20035;-76
2023/08/07 07:39:35;;;;;;;4.32;1.52;;;;;;;17.69;100.00;99310.97;5073054;28;20353;-76
2023/08/07 07:42:01;;;;;;;1.77;1.60;;;;;;;17.98;100.00;99320.41;5074663;28;20035;-75
2023/08/07 07:44:27;;;;;;;2.40;1.30;;;;;;;18.31;100.00;99315.81;5090329;28;20036;-74
2023/08/07 07:46:52;;;;;;;2.65;1.55;;;;;;;18.64;100.00;99314.78;5073185;28;20029;-76
2023/08/07 07:49:17;;;;;;;2.00;1.52;;;;;;;18.90;100.00;99312.91;5074238;28;20103;-79
2023/08/07 07:51:44;;;;;;;3.15;1.52;;;;;;;18.99;100.00;99309.47;5074477;28;20527;-74
2023/08/07 07:54:10;;;;;;;2.58;1.70;;;;;;;19.01;100.00;99313.34;5074728;28;20062;-76
2023/08/07 07:56:35;;;;;;;2.33;1.67;;;;;;;19.14;100.00;99309.50;5074655;28;20536;-77
2023/08/07 07:59:00;;;;;;;2.20;1.67;;;;;;;19.18;100.00;99307.00;5073386;28;20059;-77
2023/08/07 08:01:26;;;;;;;1.85;1.50;;;;;;;19.24;100.00;99309.72;5074069;28;20049;-76
2023/08/07 08:03:52;;;;;;;2.40;1.60;;;;;;;19.45;100.00;99298.72;5073103;28;20024;-77
2023/08/07 08:06:18;;;;;;;2.15;1.55;;;;;;;19.60;100.00;99312.44;5072928;28;20024;-77
2023/08/07 08:08:43;;;;;;;2.08;1.85;;;;;;;19.84;100.00;99308.94;5074387;28;20044;-75
2023/08/07 08:11:08;;;;;;;2.97;1.30;;;;;;;20.13;100.00;99306.56;5074148;28;20552;-75
2023/08/07 08:13:38;;;;;;;2.53;1.92;;;;;;;20.25;100.00;99305.56;5074485;28;20029;-76
2023/08/07 08:16:04;;;;;;;3.78;1.92;;;;;;;20.36;100.00;99305.13;5072986;28;20024;-76
2023/08/07 08:18:30;;;;;;;2.47;1.50;;;;;;;20.37;100.00;99303.78;5073941;28;20036;-75
2023/08/07 08:20:57;;;;;;;3.17;2.03;;;;;;;20.42;100.00;99296.22;5089785;28;20044;-75
2023/08/07 08:23:22;;;;;;;3.45;1.65;;;;;;;20.36;100.00;99318.88;5081755;28;20035;-75
2023/08/07 08:25:48;;;;;;;4.47;2.00;;;;;;;20.48;100.00;99308.38;5094329;28;20036;-76
2023/08/07 08:28:14;;;;;;;4.30;1.85;;;;;;;20.60;100.00;99303.66;5104122;28;20032;-75
2023/08/07 08:30:39;;;;;;;2.08;1.73;;;;;;;20.79;100.00;99315.59;5073957;28;20032;-78
2023/08/07 08:33:05;;;;;;;2.83;1.75;;;;;;;20.91;100.00;99310.13;5073759;28;20423;-78
2023/08/07 08:35:39;;;;;;;4.28;1.92;;;;;;;20.88;100.00;99305.50;5071481;28;20055;-76
2023/08/07 08:38:29;;;;;;;4.47;1.77;;;;;;;21.09;100.00;99311.75;5073831;28;20036;-79
2023/08/07 08:40:55;;;;;;;4.63;2.00;;;;;;;21.27;100.00;99300.97;5073972;28;20035;-76
2023/08/07 08:43:21;;;;;;;2.97;2.10;;;;;;;21.17;100.00;99314.63;5072986;28;20024;-81
2023/08/07 08:45:55;;;;;;;4.07;2.08;;;;;;;20.84;100.00;99322.56;5106627;28;20035;-81
2023/08/07 08:48:23;;;;;;;3.25;1.90;;;;;;;20.68;100.00;99312.34;5072863;28;20493;-83
2023/08/07 08:50:50;;;;;;;3.15;2.10;;;;;;;20.69;100.00;99316.81;5089789;28;20044;-82
2023/08/07 08:53:18;;;;;;;2.13;1.92;;;;;;;20.82;100.00;99299.16;5106854;28;20044;-83
2023/08/07 08:56:04;;;;;;;5.60;2.22;;;;;;;20.88;100.00;99310.53;5089958;28;20020;-82
2023/08/07 08:58:30;;;;;;;3.10;2.38;;;;;;;20.71;100.00;99308.28;5073101;28;20446;-82
2023/08/07 09:00:56;;;;;;;3.20;2.30;;;;;;;20.69;100.00;99317.59;5089244;28;20146;-84
2023/08/07 09:03:25;;;;;;;3.95;2.13;;;;;;;20.58;100.00;99320.91;5073396;28;20035;-83
2023/08/07 09:05:54;;;;;;;2.53;2.33;;;;;;;20.25;100.00;99322.22;5074452;28;20354;-83
2023/08/07 09:08:22;;;;;;;7.28;2.40;;;;;;;19.80;100.00;99334.66;5089557;28;20115;-83
2023/08/07 09:11:03;;;;;;;5.32;2.15;;;;;;;19.45;100.00;99334.28;5089271;28;20036;-84
2023/08/07 09:13:49;;;;;;;4.38;2.10;;;;;;;19.37;100.00;99327.69;5074159;28;20099;-83
2023/08/07 09:16:30;;;;;;;2.50;2.20;;;;;;;19.67;100.00;99335.59;5074617;28;20115;-81
2023/08/07 09:18:58;;;;;;;3.75;2.15;;;;;;;19.88;100.00;99335.41;5072364;28;20480;-84
2023/08/07 09:21:24;;;;;;;4.10;2.40;;;;;;;20.12;100.00;99331.91;5072495;28;20457;-80
2023/08/07 09:23:49;;;;;;;4.03;2.40;;;;;;;20.54;100.00;99328.50;5106275;28;20031;-79
2023/08/07 09:26:23;;;;;;;2.97;2.45;;;;;;;21.02;100.00;99335.03;5073845;28;20458;-79
2023/08/07 09:28:51;;;;;;;3.58;2.20;;;;;;;21.21;100.00;99333.19;5107029;28;20420;-84
2023/08/07 09:31:17;;;;;;;5.88;2.63;;;;;;;21.45;100.00;99328.75;5055852;28;20036;-81
2023/08/07 09:33:44;;;;;;;5.45;3.58;;;;;;;21.55;100.00;99328.88;5073494;28;20382;-83
2023/08/07 09:36:11;;;;;;;3.08;2.10;;;;;;;21.50;100.00;99338.59;5105970;28;20495;-80
2023/08/07 09:38:37;;;;;;;5.85;3.00;;;;;;;21.36;100.00;99348.97;5073772;28;20047;-81
2023/08/07 09:41:06;;;;;;;4.65;2.88;;;;;;;20.92;100.00;99346.53;5073926;28;20450;-84
2023/08/07 09:43:35;;;;;;;4.78;2.33;;;;;;;20.88;100.00;99330.88;5057311;28;20496;-79
2023/08/07 09:46:07;;;;;;;4.13;2.30;;;;;;;20.99;100.00;99330.44;5073020;28;20032;-83
2023/08/07 09:48:43;;;;;;;4.50;2.17;;;;;;;21.11;100.00;99349.72;5073625;28;20480;-83
2023/08/07 09:51:23;;;;;;;11.48;3.00;;;;;;;21.43;100.00;99345.25;5075808;28;20028;-85
2023/08/07 09:53:49;;;;;;;5.25;2.50;;;;;;;21.82;100.00;99343.59;5075587;28;20025;-77
2023/08/07 09:56:19;;;;;;;5.32;2.20;;;;;;;21.77;100.00;99345.38;5099574;28;20039;-86
2023/08/07 09:58:51;;;;;;;3.67;2.10;;;;;;;21.75;100.00;99335.69;5084940;28;20109;-81
2023/08/07 10:01:17;;;;;;;1.88;1.60;;;;;;;21.79;100.00;99341.84;5084058;28;20044;-84
2023/08/07 10:03:43;;;;;;;3.03;2.45;;;;;;;21.41;100.00;99360.34;5095585;28;20075;-82
2023/08/07 10:06:13;;;;;;;2.20;1.52;;;;;;;21.40;100.00;99361.72;5095597;28;20138;-84
2023/08/07 10:08:42;;;;;;;3.83;1.70;;;;;;;21.56;100.00;99360.28;5081470;28;20390;-82
2023/08/07 10:11:09;;;;;;;3.35;1.80;;;;;;;21.61;100.00;99356.38;5084270;28;20028;-84
2023/08/07 10:13:36;;;;;;;1.85;1.42;;;;;;;21.56;100.00;99377.72;5057993;28;20040;-83
2023/08/07 10:16:04;;;;;;;3.25;1.58;;;;;;;21.59;100.00;99370.72;5075454;28;20103;-77
2023/08/07 10:18:30;;;;;;;5.40;2.00;;;;;;;21.78;100.00;99367.25;5074473;28;20123;-80
2023/08/07 10:20:58;;;;;;;1.90;1.65;;;;;;;21.85;100.00;99366.44;5076496;28;20036;-78
2023/08/07 10:23:24;;;;;;;2.22;1.60;;;;;;;21.70;100.00;99369.47;5075332;28;20036;-79
2023/08/07 10:25:51;;;;;;;5.72;2.00;;;;;;;21.63;100.00;99362.34;5076687;28;20439;-78
2023/08/07 10:28:20;;;;;;;2.15;1.60;;;;;;;21.71;100.00;99362.28;5091561;28;20043;-80
2023/08/07 10:30:52;;;;;;;3.33;1.60;;;;;;;21.78;100.00;99373.06;5091995;28;20036;-79
2023/08/07 10:33:20;;;;;;;2.65;1.42;;;;;;;21.86;100.00;99367.22;5057557;28;20071;-76
2023/08/07 10:35:52;;;;;;;3.45;1.83;;;;;;;21.75;100.00;99370.59;5076080;28;20024;-79
2023/08/07 10:38:30;;;;;;;3.15;1.80;;;;;;;21.47;100.00;99374.69;5057553;28;20040;-79
2023/08/07 10:41:24;;;;;;;3.28;1.83;;;;;;;21.23;100.00;99371.16;5062131;28;20393;-81
2023/08/07 10:43:50;;;;;;;3.60;1.70;;;;;;;20.94;100.00;99366.28;5095821;28;20038;-79
2023/08/07 10:46:18;;;;;;;2.03;1.80;;;;;;;20.88;100.00;99372.31;5095432;28;20039;-79
2023/08/07 10:48:46;;;;;;;3.83;1.50;;;;;;;20.91;100.00;99358.72;5094349;28;20097;-79
2023/08/07 10:51:16;;;;;;;2.42;1.77;;;;;;;20.89;100.00;99361.47;5111281;28;20381;-78
2023/08/07 10:53:45;;;;;;;2.65;1.75;;;;;;;20.75;100.00;99349.31;5111137;28;20032;-79
2023/08/07 10:56:20;;;;;;;1.88;1.58;;;;;;;20.77;100.00;99364.03;5111596;28;20380;-79
2023/08/07 10:58:52;;;;;;;1.73;1.58;;;;;;;20.85;100.00;99355.25;5096062;28;20123;-81
2023/08/07 11:01:34;;;;;;;3.55;1.60;;;;;;;20.96;100.00;99346.13;5094678;28;20063;-78
2023/08/07 11:04:10;;;;;;;4.03;1.70;;;;;;;21.12;100.00;99350.47;5095464;28;20085;-85
2023/08/07 11:06:37;;;;;;;3.13;1.60;;;;;;;21.17;100.00;99361.09;5091608;28;20465;-85
2023/08/07 11:09:06;;;;;;;1.50;1.35;;;;;;;21.22;100.00;99345.56;5095732;28;20472;-84
2023/08/07 11:11:43;;;;;;;3.90;1.73;;;;;;;21.40;100.00;99343.50;5095596;28;20072;-84
2023/08/07 11:14:13;;;;;;;3.67;1.90;;;;;;;21.39;100.00;99365.97;5094442;28;20044;-84
2023/08/07 11:16:39;;;;;;;1.85;1.40;;;;;;;21.14;100.00;99362.28;5095294;28;20031;-84
2023/08/07 11:19:11;;;;;;;3.50;1.75;;;;;;;21.18;100.00;99351.81;5095873;28;20032;-87
2023/08/07 11:21:37;;;;;;;2.17;1.60;;;;;;;21.22;100.00;99345.56;5095544;28;20055;-86
2023/08/07 11:24:03;;;;;;;2.92;1.90;;;;;;;20.91;100.00;99342.06;5076829;28;20113;-85
2023/08/07 11:26:31;;;;;;;3.15;1.70;;;;;;;20.59;100.00;99353.63;5111949;28;20514;-86